createdAt,value
2023-01-11T00:01:20.945Z,72.45
2023-01-11T00:03:48.803Z,72.10
2023-01-11T00:06:16.674Z,71.21
2023-01-11T00:08:46.297Z,70.52
2023-01-11T00:11:15.748Z,70.41
2023-01-11T00:13:45.498Z,69.85
2023-01-11T00:16:13.966Z,69.97
2023-01-11T00:18:41.945Z,69.47
2023-01-11T00:21:10.018Z,69.27
2023-01-11T00:23:38.004Z,68.93
2023-01-11T00:26:07.102Z,68.12
2023-01-11T00:28:34.988Z,67.48
2023-01-11T00:31:02.964Z,66.77
2023-01-11T00:33:30.991Z,66.99
2023-01-11T00:35:59.265Z,66.23
2023-01-11T00:38:47.200Z,66.21
2023-01-11T00:41:35.655Z,66.11
2023-01-11T00:44:23.192Z,65.71
2023-01-11T00:47:09.790Z,65.59
2023-01-11T00:49:37.774Z,65.19
2023-01-11T00:52:09.196Z,64.69
2023-01-11T00:54:38.927Z,64.35
2023-01-11T00:57:07.737Z,64.85
2023-01-11T00:59:36.493Z,64.55
2023-01-11T01:02:04.491Z,63.93
2023-01-11T01:04:32.655Z,64.00
2023-01-11T01:07:00.813Z,63.76
2023-01-11T01:09:28.794Z,63.43
2023-01-11T01:11:56.763Z,63.24
2023-01-11T01:14:29.343Z,62.77
2023-01-11T01:16:59.046Z,63.32
2023-01-11T01:19:30.193Z,62.63
2023-01-11T01:21:59.083Z,62.81
2023-01-11T01:24:31.122Z,62.30
2023-01-11T01:26:59.214Z,62.93
2023-01-11T01:29:27.420Z,62.65
2023-01-11T01:31:55.329Z,62.86
2023-01-11T01:34:23.434Z,62.79
2023-01-11T01:36:51.400Z,62.90
2023-01-11T01:39:19.254Z,62.16
2023-01-11T01:41:47.243Z,62.40
2023-01-11T01:44:33.846Z,62.37
2023-01-11T01:47:03.236Z,62.21
2023-01-11T01:49:31.219Z,62.02
2023-01-11T01:51:59.390Z,61.91
2023-01-11T01:54:29.923Z,62.03
2023-01-11T01:57:01.359Z,61.81
2023-01-11T01:59:31.083Z,62.10
2023-01-11T02:01:59.809Z,61.56
2023-01-11T02:04:31.012Z,61.68
2023-01-11T02:07:08.917Z,61.45
2023-01-11T02:09:45.789Z,61.33
2023-01-11T02:12:14.177Z,61.24
2023-01-11T02:14:43.678Z,61.18
2023-01-11T02:17:11.956Z,61.03
2023-01-11T02:19:39.823Z,60.70
2023-01-11T02:22:17.112Z,60.82
2023-01-11T02:24:51.019Z,61.21
2023-01-11T02:27:37.726Z,61.21
2023-01-11T02:30:13.899Z,60.66
2023-01-11T02:32:44.536Z,61.36
2023-01-11T02:35:18.434Z,61.03
2023-01-11T02:37:54.287Z,60.28
2023-01-11T02:40:27.578Z,60.86
2023-01-11T02:43:24.434Z,60.12
2023-01-11T02:45:52.506Z,60.14
2023-01-11T02:48:23.126Z,60.47
2023-01-11T02:50:50.874Z,60.58
2023-01-11T02:53:23.594Z,60.31
2023-01-11T02:55:54.722Z,59.93
2023-01-11T02:58:25.353Z,60.15
2023-01-11T03:00:55.844Z,60.33
2023-01-11T03:03:27.947Z,60.09
2023-01-11T03:06:28.114Z,59.75
2023-01-11T03:08:56.040Z,59.66
2023-01-11T03:11:54.836Z,59.74
2023-01-11T03:14:25.766Z,59.79
2023-01-11T03:16:56.818Z,59.65
2023-01-11T03:19:30.715Z,59.47
2023-01-11T03:21:58.586Z,59.49
2023-01-11T03:24:39.251Z,59.67
2023-01-11T03:27:16.026Z,59.54
2023-01-11T03:30:02.839Z,59.81
2023-01-11T03:32:40.240Z,59.43
2023-01-11T03:35:16.902Z,59.63
2023-01-11T03:38:23.211Z,59.79
2023-01-11T03:40:54.515Z,59.75
2023-01-11T03:43:23.514Z,59.62
2023-01-11T03:46:01.722Z,59.87
2023-01-11T03:48:33.788Z,59.98
2023-01-11T03:51:03.212Z,60.12
2023-01-11T03:53:33.571Z,59.88
2023-01-11T03:56:03.082Z,59.85
2023-01-11T03:58:31.192Z,60.22
2023-01-11T04:00:59.775Z,60.10
2023-01-11T04:03:28.490Z,60.12
2023-01-11T04:06:02.750Z,59.96
2023-01-11T04:08:31.573Z,60.04
2023-01-11T04:10:59.544Z,60.15
2023-01-11T04:13:27.410Z,59.91
2023-01-11T04:15:55.381Z,59.59
2023-01-11T04:18:23.470Z,59.52
2023-01-11T04:20:51.338Z,59.44
2023-01-11T04:23:19.288Z,59.19
2023-01-11T04:25:47.652Z,58.97
2023-01-11T04:28:15.944Z,59.46
2023-01-11T04:30:43.914Z,58.88
2023-01-11T04:33:13.433Z,59.06
2023-01-11T04:35:42.208Z,59.10
2023-01-11T04:38:10.285Z,59.39
2023-01-11T04:40:38.257Z,59.33
2023-01-11T04:43:06.190Z,59.11
2023-01-11T04:45:34.116Z,59.25
2023-01-11T04:48:02.251Z,59.28
2023-01-11T04:50:30.389Z,59.41
2023-01-11T04:52:59.238Z,59.44
2023-01-11T04:55:27.072Z,59.53
2023-01-11T04:57:55.056Z,59.45
2023-01-11T05:00:22.923Z,59.59
2023-01-11T05:02:50.994Z,59.65
2023-01-11T05:05:19.379Z,59.81
2023-01-11T05:07:48.479Z,59.87
2023-01-11T05:10:16.875Z,59.84
2023-01-11T05:12:47.179Z,59.62
2023-01-11T05:15:15.142Z,59.72
2023-01-11T05:17:43.128Z,59.68
2023-01-11T05:20:11.496Z,59.68
2023-01-11T05:22:39.361Z,59.81
2023-01-11T05:25:07.536Z,59.62
2023-01-11T05:27:35.375Z,59.55
2023-01-11T05:30:03.406Z,59.54
2023-01-11T05:32:31.342Z,59.58
2023-01-11T05:34:59.312Z,59.80
2023-01-11T05:37:27.275Z,59.88
2023-01-11T05:39:55.258Z,59.97
2023-01-11T05:42:23.222Z,59.78
2023-01-11T05:45:09.571Z,59.75
2023-01-11T05:47:37.489Z,59.77
2023-01-11T05:50:05.762Z,59.73
2023-01-11T05:52:33.735Z,59.72
2023-01-11T05:55:01.705Z,59.81
2023-01-11T05:57:29.672Z,59.66
2023-01-11T05:59:57.600Z,59.56
2023-01-11T06:02:25.529Z,59.52
2023-01-11T06:04:55.523Z,59.83
2023-01-11T06:07:25.135Z,59.95
2023-01-11T06:09:53.105Z,59.90
2023-01-11T06:12:21.078Z,59.97
2023-01-11T06:14:49.150Z,59.83
2023-01-11T06:17:17.017Z,60.04
2023-01-11T06:19:44.985Z,60.08
2023-01-11T06:22:12.846Z,60.09
2023-01-11T06:24:40.741Z,60.00
2023-01-11T06:27:08.519Z,59.79
2023-01-11T06:29:36.460Z,59.67
2023-01-11T06:32:04.630Z,59.47
2023-01-11T06:34:32.369Z,59.60
2023-01-11T06:37:00.354Z,59.55
2023-01-11T06:39:28.224Z,59.76
2023-01-11T06:41:56.197Z,60.31
2023-01-11T06:44:24.166Z,59.89
2023-01-11T06:46:52.136Z,59.25
2023-01-11T06:49:20.104Z,58.97
2023-01-11T06:51:48.067Z,59.00
2023-01-11T06:54:22.079Z,58.71
2023-01-11T06:56:49.951Z,58.82
2023-01-11T06:59:17.917Z,58.53
2023-01-11T07:01:46.182Z,58.69
2023-01-11T07:04:14.594Z,58.51
2023-01-11T07:06:42.555Z,58.14
2023-01-11T07:09:10.721Z,57.93
2023-01-11T07:11:39.405Z,58.31
2023-01-11T07:14:07.376Z,58.22
2023-01-11T07:16:35.239Z,58.62
2023-01-11T07:19:03.219Z,58.13
2023-01-11T07:21:31.069Z,58.15
2023-01-11T07:23:58.942Z,58.13
2023-01-11T07:26:28.430Z,57.81
2023-01-11T07:28:56.526Z,57.47
2023-01-11T07:31:24.742Z,57.10
2023-01-11T07:33:52.700Z,56.94
2023-01-11T07:36:20.486Z,56.89
2023-01-11T07:38:48.498Z,57.48
2023-01-11T07:41:35.023Z,57.30
2023-01-11T07:44:10.621Z,57.36
2023-01-11T07:46:38.603Z,56.99
2023-01-11T07:49:06.699Z,57.09
2023-01-11T07:51:34.877Z,56.79
2023-01-11T07:54:04.097Z,56.18
2023-01-11T07:56:31.930Z,56.08
2023-01-11T07:58:59.912Z,56.18
2023-01-11T08:01:28.077Z,55.98
2023-01-11T08:03:55.929Z,56.84
2023-01-11T08:06:24.023Z,57.09
2023-01-11T08:08:52.001Z,57.01
2023-01-11T08:11:38.394Z,57.70
2023-01-11T08:14:24.897Z,57.27
2023-01-11T08:16:52.767Z,56.93
2023-01-11T08:19:20.677Z,56.36
2023-01-11T08:21:49.931Z,56.06
2023-01-11T08:24:17.909Z,56.02
2023-01-11T08:26:45.893Z,56.17
2023-01-11T08:29:13.738Z,56.08
2023-01-11T08:31:44.069Z,55.93
2023-01-11T08:34:12.034Z,55.98
2023-01-11T08:36:39.998Z,56.46
2023-01-11T08:39:08.041Z,56.55
2023-01-11T08:41:36.050Z,56.45
2023-01-11T08:44:04.320Z,56.08
2023-01-11T08:46:34.322Z,55.85
2023-01-11T08:49:02.506Z,56.09
2023-01-11T08:51:31.397Z,54.91
2023-01-11T08:53:59.252Z,54.68
2023-01-11T08:56:27.281Z,56.12
2023-01-11T08:58:55.211Z,54.80
2023-01-11T09:01:23.205Z,54.85
2023-01-11T09:03:51.151Z,54.87
2023-01-11T09:06:19.048Z,55.44
2023-01-11T09:08:47.900Z,54.52
2023-01-11T09:11:34.713Z,54.01
2023-01-11T09:14:02.842Z,54.97
2023-01-11T09:16:30.761Z,55.47
2023-01-11T09:18:58.843Z,54.93
2023-01-11T09:21:26.900Z,54.94
2023-01-11T09:23:54.876Z,54.55
2023-01-11T09:26:22.779Z,54.79
2023-01-11T09:28:50.755Z,55.71
2023-01-11T09:31:18.846Z,55.72
2023-01-11T09:33:47.052Z,55.45
2023-01-11T09:36:15.336Z,56.10
2023-01-11T09:38:44.127Z,56.98
2023-01-11T09:41:36.368Z,55.37
2023-01-11T09:44:10.362Z,55.40
2023-01-11T09:46:42.493Z,55.29
2023-01-11T09:49:17.171Z,55.10
2023-01-11T09:51:46.360Z,55.34
2023-01-11T09:54:18.024Z,55.40
2023-01-11T09:56:51.411Z,55.50
2023-01-11T09:59:58.506Z,55.21
2023-01-11T10:02:26.677Z,56.56
2023-01-11T10:05:23.719Z,57.96
2023-01-11T10:18:31.012Z,54.50
2023-01-11T10:19:41.396Z,54.47
2023-01-11T10:22:23.452Z,55.04
2023-01-11T10:24:57.547Z,54.76
2023-01-11T10:27:25.564Z,54.87
2023-01-11T10:30:07.215Z,54.56
2023-01-11T10:32:45.992Z,54.62
2023-01-11T10:35:59.085Z,54.75
2023-01-11T10:38:49.246Z,54.64
2023-01-11T10:41:30.016Z,54.84
2023-01-11T10:44:03.524Z,54.45
2023-01-11T10:46:32.721Z,55.04
2023-01-11T10:49:15.853Z,55.16
2023-01-11T10:51:45.960Z,54.85
2023-01-11T10:54:20.253Z,54.86
2023-01-11T10:57:11.418Z,55.19
2023-01-11T10:59:53.703Z,55.24
2023-01-11T11:02:36.956Z,55.51
2023-01-11T11:05:08.178Z,55.80
2023-01-11T11:07:42.292Z,55.33
2023-01-11T11:10:25.610Z,55.77
2023-01-11T11:12:56.345Z,55.69
2023-01-11T11:15:36.192Z,55.27
2023-01-11T11:18:04.882Z,55.35
2023-01-11T11:20:33.991Z,55.24
2023-01-11T11:23:02.257Z,55.47
2023-01-11T11:25:35.649Z,55.31
2023-01-11T11:28:03.532Z,55.22
2023-01-11T11:30:37.986Z,55.15
2023-01-11T11:33:07.954Z,55.46
2023-01-11T11:35:42.155Z,55.30
2023-01-11T11:38:36.255Z,55.50
2023-01-11T11:41:04.234Z,55.72
2023-01-11T11:43:33.521Z,55.95
2023-01-11T11:46:06.387Z,55.81
2023-01-11T11:48:35.197Z,55.56
2023-01-11T11:51:05.210Z,55.86
2023-01-11T11:53:36.360Z,56.03
2023-01-11T11:56:16.514Z,56.17
2023-01-11T11:58:45.370Z,55.84
2023-01-11T12:01:22.181Z,55.83
2023-01-11T12:03:51.688Z,55.16
2023-01-11T12:06:27.843Z,55.41
2023-01-11T12:08:57.253Z,54.93
2023-01-11T12:11:35.569Z,54.78
2023-01-11T12:14:17.478Z,55.14
2023-01-11T12:16:46.369Z,53.92
2023-01-11T12:19:28.939Z,54.38
2023-01-11T12:22:17.110Z,53.85
2023-01-11T12:24:46.008Z,54.04
2023-01-11T12:27:32.923Z,53.41
2023-01-11T12:30:08.767Z,53.25
2023-01-11T12:32:55.204Z,53.82
2023-01-11T12:35:42.287Z,53.73
2023-01-11T12:38:19.111Z,53.69
2023-01-11T12:40:50.107Z,53.56
2023-01-11T12:43:20.940Z,53.71
2023-01-11T12:45:58.125Z,53.61
2023-01-11T12:48:32.608Z,53.52
2023-01-11T12:51:33.182Z,53.21
2023-01-11T12:54:06.888Z,53.29
2023-01-11T12:57:07.502Z,53.01
2023-01-11T12:59:48.912Z,52.60
2023-01-11T13:02:19.573Z,52.75
2023-01-11T13:04:47.931Z,53.26
2023-01-11T13:07:21.724Z,53.16
2023-01-11T13:09:49.695Z,53.35
2023-01-11T13:12:20.742Z,53.28
2023-01-11T13:15:07.542Z,53.40
2023-01-11T13:17:44.797Z,53.38
2023-01-11T13:20:19.044Z,53.40
2023-01-11T13:23:13.431Z,53.57
2023-01-11T13:25:44.069Z,52.96
2023-01-11T13:28:23.958Z,52.74
2023-01-11T13:30:52.332Z,52.27
2023-01-11T13:33:24.356Z,52.04
2023-01-11T13:35:58.069Z,51.56
2023-01-11T13:38:25.923Z,51.43
2023-01-11T13:40:56.666Z,51.77
2023-01-11T13:43:33.891Z,51.44
2023-01-11T13:46:14.243Z,51.30
2023-01-11T13:48:45.455Z,51.83
2023-01-11T13:51:23.446Z,51.74
2023-01-11T13:53:56.854Z,52.00
2023-01-11T13:56:28.420Z,52.30
2023-01-11T13:59:01.292Z,52.51
2023-01-11T14:01:42.406Z,52.34
2023-01-11T14:04:27.051Z,52.60
2023-01-11T14:07:02.522Z,53.19
2023-01-11T14:09:45.501Z,52.70
2023-01-11T14:12:16.539Z,52.76
2023-01-11T14:15:03.577Z,52.70
2023-01-11T14:17:38.483Z,52.60
2023-01-11T14:20:11.355Z,53.27
2023-01-11T14:22:58.602Z,55.07
2023-01-11T14:25:45.415Z,56.22
2023-01-11T14:28:13.189Z,57.30
2023-01-11T14:30:50.473Z,58.04
2023-01-11T14:33:36.970Z,58.53
2023-01-11T14:36:04.935Z,59.20
2023-01-11T14:38:32.912Z,59.61
2023-01-11T14:41:03.633Z,60.12
2023-01-11T14:43:37.855Z,60.72
2023-01-11T14:46:08.811Z,60.98
2023-01-11T14:48:39.831Z,61.54
2023-01-11T14:51:33.366Z,61.59
2023-01-11T14:54:04.547Z,61.60
2023-01-11T14:56:44.703Z,61.59
2023-01-11T14:59:31.085Z,62.01
2023-01-11T15:02:05.508Z,62.45
2023-01-11T15:04:33.512Z,63.80
2023-01-11T15:07:02.085Z,62.85
2023-01-11T15:09:43.929Z,63.33
2023-01-11T15:12:13.313Z,63.70
2023-01-11T15:14:47.185Z,64.05
2023-01-11T15:17:38.598Z,63.69
2023-01-11T15:20:11.505Z,64.03
2023-01-11T15:22:40.379Z,64.19
2023-01-11T15:25:28.253Z,65.00
2023-01-11T15:27:56.802Z,65.59
2023-01-11T15:30:31.006Z,65.79
2023-01-11T15:33:31.740Z,66.14
2023-01-11T15:36:03.748Z,66.07
2023-01-11T15:38:31.788Z,66.00
2023-01-11T15:41:22.169Z,65.52
2023-01-11T15:44:08.216Z,65.58
2023-01-11T15:46:54.536Z,66.14
2023-01-11T15:49:51.931Z,66.06
2023-01-11T15:52:38.010Z,66.24
2023-01-11T15:55:06.015Z,66.46
2023-01-11T15:57:49.431Z,66.68
2023-01-11T16:00:17.402Z,66.45
2023-01-11T16:02:57.355Z,66.23
2023-01-11T16:05:31.560Z,64.90
2023-01-11T16:07:59.533Z,64.54
2023-01-11T16:10:30.887Z,64.63
2023-01-11T16:13:01.522Z,64.08
2023-01-11T16:15:49.320Z,64.87
2023-01-11T16:18:21.824Z,65.18
2023-01-11T16:21:19.215Z,65.03
2023-01-11T16:23:47.267Z,65.90
2023-01-11T16:26:16.869Z,64.42
2023-01-11T16:28:58.438Z,66.71
2023-01-11T16:31:46.399Z,67.58
2023-01-11T16:34:17.029Z,67.76
2023-01-11T16:36:49.202Z,67.83
2023-01-11T16:39:22.594Z,67.32
2023-01-11T16:41:51.218Z,66.29
2023-01-11T16:44:27.643Z,67.54
2023-01-11T16:47:07.194Z,67.83
2023-01-11T16:49:35.157Z,67.35
2023-01-11T16:52:23.086Z,66.67
2023-01-11T16:54:51.359Z,65.59
2023-01-11T16:57:20.046Z,65.54
2023-01-11T17:00:08.289Z,67.60
2023-01-11T17:02:38.796Z,68.72
2023-01-11T17:05:35.924Z,69.28
2023-01-11T17:08:23.809Z,69.44
2023-01-11T17:10:57.005Z,69.27
2023-01-11T17:13:52.746Z,69.41
2023-01-11T17:16:22.961Z,69.21
2023-01-11T17:18:51.101Z,69.33
2023-01-11T17:21:26.883Z,69.26
2023-01-11T17:23:58.628Z,69.24
2023-01-11T17:26:28.239Z,69.29
2023-01-11T17:28:57.744Z,69.09
2023-01-11T17:31:33.200Z,69.53
2023-01-11T17:34:04.017Z,69.99
2023-01-11T17:36:32.708Z,70.03
2023-01-11T17:39:01.531Z,70.15
2023-01-11T17:41:48.517Z,70.10
2023-01-11T17:44:39.845Z,69.21
2023-01-11T17:47:11.614Z,69.29
2023-01-11T17:49:39.796Z,69.58
2023-01-11T17:52:08.764Z,69.48
2023-01-11T17:54:36.931Z,69.92
2023-01-11T17:57:05.733Z,69.89
2023-01-11T17:59:34.409Z,69.99
2023-01-11T18:02:20.449Z,70.30
2023-01-11T18:04:57.700Z,70.21
2023-01-11T18:07:26.081Z,70.17
2023-01-11T18:09:59.582Z,70.08
2023-01-11T18:12:32.858Z,69.97
2023-01-11T18:15:02.952Z,69.70
2023-01-11T18:17:36.990Z,70.01
2023-01-11T18:20:10.689Z,69.96
2023-01-11T18:23:05.075Z,70.03
2023-01-11T18:25:36.451Z,70.22
2023-01-11T18:28:20.995Z,70.40
2023-01-11T18:30:54.021Z,70.09
2023-01-11T18:33:23.677Z,69.61
2023-01-11T18:35:52.989Z,69.23
2023-01-11T18:38:25.771Z,68.69
2023-01-11T18:40:54.671Z,68.57
2023-01-11T18:43:30.311Z,68.27
2023-01-11T18:45:58.334Z,68.17
2023-01-11T18:48:26.351Z,68.54
2023-01-11T18:50:54.726Z,68.95
2023-01-11T18:53:23.821Z,69.03
2023-01-11T18:55:51.702Z,69.15
2023-01-11T18:58:19.668Z,69.37
2023-01-11T19:00:47.652Z,69.35
2023-01-11T19:05:48.637Z,69.47
2023-01-11T19:08:18.405Z,69.32
2023-01-11T19:10:48.294Z,69.37
2023-01-11T19:13:19.402Z,69.24
2023-01-11T19:15:47.387Z,69.45
2023-01-11T19:18:16.530Z,69.41
2023-01-11T19:20:44.388Z,69.92
2023-01-11T19:23:12.340Z,70.39
2023-01-11T19:25:41.503Z,70.40
2023-01-11T19:28:09.537Z,70.28
2023-01-11T19:30:38.876Z,70.24
2023-01-11T19:33:06.799Z,70.49
2023-01-11T19:35:39.066Z,70.61
2023-01-11T19:38:06.997Z,70.60
2023-01-11T19:40:34.904Z,70.55
2023-01-11T19:43:02.781Z,70.83
2023-01-11T19:45:30.638Z,70.21
2023-01-11T19:47:58.948Z,69.64
2023-01-11T19:50:26.883Z,71.02
2023-01-11T19:52:54.683Z,70.38
2023-01-11T19:55:22.928Z,69.92
2023-01-11T19:57:51.202Z,71.78
2023-01-11T20:00:20.713Z,72.26
2023-01-11T20:02:48.613Z,72.65
2023-01-11T20:05:16.749Z,72.95
2023-01-11T20:07:44.549Z,73.43
2023-01-11T20:10:12.610Z,73.64
2023-01-11T20:12:40.685Z,73.35
2023-01-11T20:15:09.010Z,73.29
2023-01-11T20:17:38.031Z,73.16
2023-01-11T20:20:06.825Z,73.28
2023-01-11T20:22:34.794Z,73.72
2023-01-11T20:25:02.760Z,73.75
2023-01-11T20:27:31.037Z,73.89
2023-01-11T20:29:58.903Z,74.18
2023-01-11T20:32:40.742Z,74.18
2023-01-11T20:35:09.885Z,74.10
2023-01-11T20:37:37.863Z,74.03
2023-01-11T20:40:06.472Z,73.83
2023-01-11T20:42:34.669Z,73.90
2023-01-11T20:45:02.552Z,73.94
2023-01-11T20:47:30.559Z,74.09
2023-01-11T20:49:58.540Z,74.10
2023-01-11T20:52:26.607Z,74.35
2023-01-11T20:54:54.527Z,74.37
2023-01-11T20:57:22.745Z,74.43
2023-01-11T20:59:50.720Z,74.63
2023-01-11T21:02:18.688Z,74.40
2023-01-11T21:04:46.648Z,73.91
2023-01-11T21:07:14.620Z,74.24
2023-01-11T21:09:42.698Z,74.78
2023-01-11T21:12:10.666Z,75.05
2023-01-11T21:14:38.735Z,75.22
2023-01-11T21:17:06.606Z,75.21
2023-01-11T21:19:34.471Z,74.83
2023-01-11T21:22:02.387Z,74.66
2023-01-11T21:24:30.415Z,74.53
2023-01-11T21:26:58.409Z,74.49
2023-01-11T21:29:26.455Z,74.69
2023-01-11T21:31:54.330Z,74.65
2023-01-11T21:34:22.247Z,74.32
2023-01-11T21:36:50.045Z,73.62
2023-01-11T21:39:18.125Z,74.18
2023-01-11T21:42:03.605Z,74.55
2023-01-11T21:44:35.536Z,74.58
2023-01-11T21:47:04.788Z,74.51
2023-01-11T21:49:32.865Z,74.36
2023-01-11T21:52:00.908Z,73.48
2023-01-11T21:54:28.812Z,73.31
2023-01-11T21:56:56.747Z,73.67
2023-01-11T21:59:25.333Z,74.48
2023-01-11T22:01:53.317Z,74.62
2023-01-11T22:04:21.806Z,74.26
2023-01-11T22:06:55.203Z,74.16
2023-01-11T22:09:27.139Z,73.86
2023-01-11T22:11:55.616Z,73.75
2023-01-11T22:14:23.800Z,73.61
2023-01-11T22:16:52.390Z,73.41
2023-01-11T22:19:20.289Z,73.35
2023-01-11T22:21:48.321Z,73.02
2023-01-11T22:24:17.726Z,73.16
2023-01-11T22:26:45.751Z,73.04
2023-01-11T22:29:16.443Z,72.68
2023-01-11T22:31:51.162Z,72.29
2023-01-11T22:34:19.676Z,72.28
2023-01-11T22:36:48.215Z,72.52
2023-01-11T22:39:16.905Z,72.44
2023-01-11T22:41:46.134Z,71.94
2023-01-11T22:44:14.416Z,72.05
2023-01-11T22:46:43.376Z,72.42
2023-01-11T22:49:11.860Z,72.57
2023-01-11T22:51:40.746Z,72.94
2023-01-11T22:54:09.133Z,72.98
2023-01-11T22:56:37.305Z,72.81
2023-01-11T22:59:05.477Z,73.47
2023-01-11T23:01:37.748Z,73.87
2023-01-11T23:04:06.321Z,74.03
2023-01-11T23:06:35.933Z,74.03
2023-01-11T23:09:04.515Z,73.95
2023-01-11T23:11:54.124Z,73.97
2023-01-11T23:14:22.163Z,74.22
2023-01-11T23:16:50.804Z,74.37
2023-01-11T23:19:20.195Z,74.64
2023-01-11T23:21:48.343Z,74.76
2023-01-11T23:24:16.689Z,74.37
2023-01-11T23:26:45.770Z,74.45
2023-01-11T23:29:13.750Z,74.84
2023-01-11T23:31:43.113Z,74.79
2023-01-11T23:34:11.768Z,74.89
2023-01-11T23:36:41.161Z,75.10
2023-01-11T23:39:14.576Z,75.36
2023-01-11T23:42:01.171Z,75.34
2023-01-11T23:44:29.043Z,75.55
2023-01-11T23:47:15.829Z,75.96
2023-01-11T23:49:44.030Z,76.03
2023-01-11T23:52:12.198Z,76.18
2023-01-11T23:54:40.466Z,76.44
2023-01-11T23:57:09.385Z,76.59
2023-01-11T23:59:37.846Z,76.49
